Time;durP1;ratioP1;P1;durP2;ratioP2;P2;SDS_P1;SDS_P2;PMS_P1;PMS_P2;Temp;Humidity;BMP_temperature;BMP_pressure;BME280_temperature;BME280_humidity;BME280_pressure;Samples;Min_cycle;Max_cycle;Signal;HPM_P1;HPM_P2
2021/11/10 00:01:58;;;;;;;11.87;6.03;;;;;;;1.18;100.00;96967.28;5033979;28;20044;-75
2021/11/10 00:04:24;;;;;;;11.17;6.47;;;;;;;1.16;100.00;96965.69;4997228;28;20037;-75
2021/11/10 00:06:50;;;;;;;10.33;6.33;;;;;;;1.02;100.00;96958.69;5018457;28;20476;-76
2021/11/10 00:09:16;;;;;;;13.50;7.00;;;;;;;1.02;100.00;96969.03;5017953;28;20033;-75
2021/11/10 00:11:42;;;;;;;13.57;7.57;;;;;;;1.08;100.00;96975.66;5038891;28;20060;-76
2021/11/10 00:14:07;;;;;;;14.07;6.87;;;;;;;1.10;100.00;96979.81;5000488;28;20392;-76
2021/11/10 00:16:33;;;;;;;11.00;6.30;;;;;;;1.05;100.00;96979.22;5017193;28;20481;-76
2021/11/10 00:18:59;;;;;;;15.23;7.50;;;;;;;1.09;100.00;96991.09;5038770;28;20021;-76
2021/11/10 00:21:26;;;;;;;13.77;7.37;;;;;;;0.97;100.00;96993.50;5016144;28;20055;-76
2021/11/10 00:23:53;;;;;;;14.73;7.60;;;;;;;0.89;100.00;96996.50;5029510;28;20110;-76
2021/11/10 00:26:19;;;;;;;13.00;7.07;;;;;;;0.84;100.00;96989.00;5033631;28;20462;-75
2021/11/10 00:28:46;;;;;;;17.00;6.87;;;;;;;0.89;100.00;96986.16;5011158;28;21098;-75
2021/11/10 00:31:11;;;;;;;11.00;7.00;;;;;;;0.90;100.00;96999.00;5011719;28;20518;-75
2021/11/10 00:33:37;;;;;;;13.90;8.30;;;;;;;0.93;100.00;96992.81;5033790;28;20861;-76
2021/11/10 00:36:04;;;;;;;13.40;6.50;;;;;;;0.93;100.00;96995.41;5022030;28;20033;-75
2021/11/10 00:38:30;;;;;;;10.67;6.73;;;;;;;0.97;100.00;96983.97;5022720;28;20501;-75
2021/11/10 00:40:56;;;;;;;13.80;7.63;;;;;;;0.97;100.00;96986.56;5036787;28;20464;-75
2021/11/10 00:43:22;;;;;;;11.97;6.67;;;;;;;0.94;100.00;96982.41;4997719;28;20025;-76
2021/11/10 00:45:49;;;;;;;11.43;6.90;;;;;;;0.96;100.00;96977.13;5010105;28;20057;-76
2021/11/10 00:48:14;;;;;;;12.87;6.93;;;;;;;0.97;100.00;96986.56;5016281;28;20452;-75
2021/11/10 00:50:40;;;;;;;13.03;6.97;;;;;;;1.02;100.00;96983.75;5014073;28;20944;-76
2021/11/10 00:53:06;;;;;;;11.67;6.80;;;;;;;1.13;100.00;96984.81;5034718;28;20021;-75
2021/11/10 00:55:34;;;;;;;12.27;7.00;;;;;;;1.09;100.00;96985.91;5009962;28;20162;-76
2021/11/10 00:58:00;;;;;;;16.43;7.13;;;;;;;1.09;100.00;96987.66;5029661;28;20474;-76
2021/11/10 01:00:26;;;;;;;12.20;7.30;;;;;;;1.11;100.00;96986.69;5011954;28;21075;-76
2021/11/10 01:02:52;;;;;;;13.77;7.13;;;;;;;1.29;100.00;96997.78;5009019;28;20045;-76
2021/11/10 01:05:19;;;;;;;11.43;7.10;;;;;;;1.23;100.00;96992.09;4999027;28;20481;-74
2021/11/10 01:07:45;;;;;;;13.33;7.97;;;;;;;1.12;100.00;96996.13;5025040;28;20467;-75
2021/11/10 01:10:13;;;;;;;13.63;7.43;;;;;;;1.13;100.00;96992.59;5027399;28;20468;-76
2021/11/10 01:12:39;;;;;;;15.20;7.33;;;;;;;1.09;100.00;96983.31;5032745;28;20403;-76
2021/11/10 01:15:09;;;;;;;15.07;8.30;;;;;;;1.12;100.00;96982.31;5007727;28;20471;-76
2021/11/10 01:17:36;;;;;;;14.40;7.40;;;;;;;1.12;100.00;96988.34;5003597;28;20040;-76
2021/11/10 01:20:03;;;;;;;14.40;7.27;;;;;;;1.05;100.00;96997.38;5025755;28;20512;-76
2021/11/10 01:22:31;;;;;;;13.47;7.47;;;;;;;1.10;100.00;96997.94;5010937;28;20543;-76
2021/11/10 01:24:57;;;;;;;12.00;7.27;;;;;;;1.10;100.00;96997.94;5012109;28;20836;-75
2021/11/10 01:27:28;;;;;;;13.03;7.10;;;;;;;1.21;100.00;96992.19;4999026;28;20535;-76
2021/11/10 01:29:54;;;;;;;14.93;9.87;;;;;;;1.29;100.00;96981.41;5021232;28;20562;-76
2021/11/10 01:32:20;;;;;;;14.60;7.40;;;;;;;1.28;100.00;96987.53;5011662;28;20468;-75
2021/11/10 01:34:49;;;;;;;11.97;7.87;;;;;;;1.29;100.00;96978.81;5012080;28;20444;-75
2021/11/10 01:37:16;;;;;;;15.83;8.70;;;;;;;1.33;100.00;96982.91;4994588;28;20456;-75
2021/11/10 01:39:42;;;;;;;14.50;8.37;;;;;;;1.30;100.00;96983.06;5013790;28;20572;-75
2021/11/10 01:42:12;;;;;;;14.53;8.67;;;;;;;1.33;100.00;96981.16;5017426;28;20120;-76
2021/11/10 01:44:43;;;;;;;13.67;8.60;;;;;;;1.30;100.00;96962.34;5013998;28;20467;-75
2021/11/10 01:47:11;;;;;;;15.30;8.57;;;;;;;1.35;100.00;96957.75;5017570;28;20471;-76
2021/11/10 01:49:42;;;;;;;16.10;8.70;;;;;;;1.39;100.00;96959.25;5026734;28;20029;-75
2021/11/10 01:52:12;;;;;;;17.00;8.53;;;;;;;1.40;100.00;96950.53;5015927;28;20499;-77
2021/11/10 01:54:39;;;;;;;14.80;8.33;;;;;;;1.37;100.00;96942.94;5010639;28;20463;-75
2021/11/10 01:57:11;;;;;;;14.73;8.67;;;;;;;1.35;100.00;96932.69;4994141;28;20478;-75
2021/11/10 01:59:44;;;;;;;16.43;9.37;;;;;;;1.40;100.00;96935.00;5017463;28;20847;-76
2021/11/10 02:02:20;;;;;;;14.43;9.03;;;;;;;1.36;100.00;96931.75;5019477;28;20868;-76
2021/11/10 02:04:51;;;;;;;15.67;8.07;;;;;;;1.35;100.00;96937.84;5014823;28;20529;-76
2021/11/10 02:07:20;;;;;;;19.50;8.77;;;;;;;1.37;100.00;96937.75;5021637;28;20585;-75
2021/11/10 02:09:48;;;;;;;13.67;8.10;;;;;;;1.34;100.00;96935.34;5008922;28;20514;-76
2021/11/10 02:12:16;;;;;;;17.40;9.00;;;;;;;1.27;100.00;96940.03;5012082;28;20506;-75
2021/11/10 02:14:47;;;;;;;14.60;8.80;;;;;;;1.26;100.00;96934.94;4990857;28;20602;-75
2021/11/10 02:17:16;;;;;;;17.20;8.67;;;;;;;1.19;100.00;96926.66;5009913;28;21095;-76
2021/11/10 02:19:44;;;;;;;13.20;8.37;;;;;;;1.15;100.00;96917.41;4991581;28;20472;-75
2021/11/10 02:22:19;;;;;;;15.38;8.20;;;;;;;1.06;100.00;96923.09;5025411;28;20475;-75
2021/11/10 02:24:45;;;;;;;16.07;8.37;;;;;;;1.03;100.00;96926.66;4997442;28;20044;-75
2021/11/10 02:27:18;;;;;;;12.00;7.97;;;;;;;0.98;100.00;96915.75;5001339;28;20468;-75
2021/11/10 02:29:45;;;;;;;11.43;6.95;;;;;;;1.03;100.00;96913.72;5012790;28;20041;-75
2021/11/10 02:32:12;;;;;;;12.70;7.40;;;;;;;1.02;100.00;96901.69;5034154;28;20056;-75
2021/11/10 02:34:40;;;;;;;13.13;8.30;;;;;;;0.86;100.00;96909.44;5016513;28;20487;-75
2021/11/10 02:37:06;;;;;;;13.70;7.63;;;;;;;0.88;100.00;96906.81;5003517;28;20477;-75
2021/11/10 02:39:33;;;;;;;14.27;8.17;;;;;;;0.88;100.00;96912.81;5022868;28;20458;-75
2021/11/10 02:41:59;;;;;;;14.47;9.03;;;;;;;0.81;100.00;96915.81;5018536;28;20480;-75
2021/11/10 02:44:25;;;;;;;14.30;8.43;;;;;;;0.82;100.00;96914.88;5020982;28;20444;-76
2021/11/10 02:46:52;;;;;;;18.60;8.43;;;;;;;0.70;100.00;96914.66;5019849;28;20529;-77
2021/11/10 02:49:19;;;;;;;13.33;8.50;;;;;;;0.67;100.00;96913.94;5009836;28;20021;-76
2021/11/10 02:52:04;;;;;;;16.77;9.33;;;;;;;0.68;100.00;96923.41;5017826;28;21110;-76
2021/11/10 02:54:33;;;;;;;16.80;9.07;;;;;;;0.75;100.00;96921.31;4991453;28;20468;-76
2021/11/10 02:57:01;;;;;;;15.87;9.33;;;;;;;0.74;100.00;96922.22;5017876;28;20464;-76
2021/11/10 02:59:28;;;;;;;18.50;9.47;;;;;;;0.74;100.00;96919.63;5015278;28;20501;-76
2021/11/10 03:01:56;;;;;;;16.47;10.23;;;;;;;0.65;100.00;96916.63;5013263;28;20482;-76
2021/11/10 03:04:32;;;;;;;17.37;9.00;;;;;;;0.64;100.00;96914.13;5021021;28;20471;-76
2021/11/10 03:07:00;;;;;;;16.33;9.30;;;;;;;0.60;100.00;96926.38;5015804;28;21410;-75
2021/11/10 03:09:28;;;;;;;14.47;9.23;;;;;;;0.56;100.00;96917.09;5003430;28;20455;-75
2021/11/10 03:11:59;;;;;;;14.43;9.33;;;;;;;0.58;100.00;96915.28;5017241;28;20590;-75
2021/11/10 03:14:31;;;;;;;16.87;9.07;;;;;;;0.56;100.00;96921.44;5019798;28;21092;-75
2021/11/10 03:16:58;;;;;;;17.83;9.60;;;;;;;0.54;100.00;96931.03;5012043;28;20468;-75
2021/11/10 03:19:27;;;;;;;16.07;9.87;;;;;;;0.56;100.00;96931.81;5014979;28;21538;-76
2021/11/10 03:21:54;;;;;;;17.73;9.47;;;;;;;0.57;100.00;96929.16;5016055;28;20482;-75
2021/11/10 03:24:20;;;;;;;14.20;8.80;;;;;;;0.53;100.00;96934.56;5044812;28;20460;-75
2021/11/10 03:26:47;;;;;;;18.77;9.80;;;;;;;0.53;100.00;96935.38;5015371;28;20492;-75
2021/11/10 03:29:13;;;;;;;13.90;9.33;;;;;;;0.47;100.00;96938.31;5019169;28;20470;-75
2021/11/10 03:31:42;;;;;;;14.87;8.90;;;;;;;0.44;100.00;96928.94;5040655;28;20463;-75
2021/11/10 03:34:11;;;;;;;14.87;8.90;;;;;;;0.49;100.00;96933.88;5014731;28;20491;-75
2021/11/10 03:36:39;;;;;;;13.60;8.83;;;;;;;0.48;100.00;96934.81;5011813;28;20545;-75
2021/11/10 03:39:07;;;;;;;16.03;10.00;;;;;;;0.39;100.00;96922.34;5010993;28;20451;-76
2021/11/10 03:41:35;;;;;;;15.50;8.53;;;;;;;0.37;100.00;96921.56;5019876;28;20567;-76
2021/11/10 03:44:02;;;;;;;14.70;8.73;;;;;;;0.25;100.00;96911.88;5014112;28;20464;-76
2021/11/10 03:46:30;;;;;;;15.80;9.40;;;;;;;0.19;100.00;96919.03;5013582;28;20572;-75
2021/11/10 03:48:59;;;;;;;16.80;8.53;;;;;;;0.17;100.00;96917.44;5004125;28;20471;-75
2021/11/10 03:51:27;;;;;;;15.63;9.60;;;;;;;0.11;100.00;96900.50;5032555;28;20423;-75
2021/11/10 03:53:53;;;;;;;15.67;9.03;;;;;;;0.01;100.00;96901.88;5001328;28;20448;-75
2021/11/10 03:56:22;;;;;;;15.60;10.13;;;;;;;-0.01;100.00;96906.28;5029054;28;20455;-76
2021/11/10 03:58:48;;;;;;;16.10;9.83;;;;;;;0.04;100.00;96906.06;5042394;28;20513;-76
2021/11/10 04:01:16;;;;;;;18.90;11.63;;;;;;;0.09;100.00;96902.31;5016144;28;20463;-76
2021/11/10 04:03:44;;;;;;;21.53;11.90;;;;;;;0.09;100.00;96907.47;5008692;28;20459;-76
2021/11/10 04:06:11;;;;;;;23.90;13.33;;;;;;;0.14;100.00;96907.25;4991770;28;20460;-76
2021/11/10 04:08:40;;;;;;;21.50;11.87;;;;;;;0.17;100.00;96894.16;5005993;28;20452;-76
2021/11/10 04:11:06;;;;;;;21.93;13.80;;;;;;;0.15;100.00;96902.00;4993490;28;20822;-76
2021/11/10 04:13:32;;;;;;;29.80;13.87;;;;;;;0.19;100.00;96897.50;5017071;28;20078;-76
2021/11/10 04:15:58;;;;;;;25.17;15.07;;;;;;;0.13;100.00;96903.81;4999492;28;20047;-76
2021/11/10 04:18:27;;;;;;;23.90;13.73;;;;;;;0.13;100.00;96898.63;5012207;28;20471;-76
2021/11/10 04:20:52;;;;;;;21.10;12.90;;;;;;;0.09;100.00;96897.13;5006540;28;20740;-76
2021/11/10 04:23:19;;;;;;;26.03;14.60;;;;;;;0.13;100.00;96897.81;5001881;28;20468;-76
2021/11/10 04:25:45;;;;;;;30.13;16.67;;;;;;;0.11;100.00;96892.72;5012864;28;20503;-76
2021/11/10 04:28:12;;;;;;;23.53;15.30;;;;;;;0.11;100.00;96891.91;5015475;28;20487;-76
2021/11/10 04:30:38;;;;;;;26.93;15.53;;;;;;;0.11;100.00;96887.56;5000609;28;20033;-77
2021/11/10 04:33:04;;;;;;;25.00;15.37;;;;;;;0.12;100.00;96881.47;4991281;28;21466;-76
2021/11/10 04:35:30;;;;;;;18.10;12.83;;;;;;;0.06;100.00;96873.19;5014682;28;20036;-76
2021/11/10 04:37:57;;;;;;;19.23;12.67;;;;;;;-0.03;100.00;96880.50;5013762;28;20025;-76
2021/11/10 04:40:24;;;;;;;15.43;11.10;;;;;;;-0.04;100.00;96878.81;5020305;28;21145;-76
2021/11/10 04:42:50;;;;;;;19.93;11.07;;;;;;;-0.03;100.00;96877.09;5008237;28;20496;-76
2021/11/10 04:45:34;;;;;;;16.83;11.13;;;;;;;-0.14;100.00;96877.63;5003591;28;20499;-76
2021/11/10 04:48:01;;;;;;;29.43;11.93;;;;;;;-0.34;100.00;96873.44;5008497;28;20519;-76
2021/11/10 04:50:26;;;;;;;17.83;11.80;;;;;;;-0.36;100.00;96875.28;5012167;28;20450;-76
2021/11/10 04:52:53;;;;;;;18.03;11.07;;;;;;;-0.36;100.00;96883.03;5018310;28;20444;-76
2021/11/10 04:55:19;;;;;;;19.43;12.63;;;;;;;-0.30;100.00;96894.84;5045874;28;20063;-76
2021/11/10 04:57:45;;;;;;;20.90;13.23;;;;;;;-0.26;100.00;96879.09;5010425;28;20516;-76
2021/11/10 05:00:13;;;;;;;24.63;13.60;;;;;;;-0.26;100.00;96886.00;5001174;28;21018;-76
2021/11/10 05:02:44;;;;;;;20.88;13.57;;;;;;;-0.19;100.00;96881.38;5013439;28;20515;-76
2021/11/10 05:05:15;;;;;;;24.80;14.63;;;;;;;-0.21;100.00;96883.19;5013886;28;20048;-76
2021/11/10 05:07:41;;;;;;;23.77;15.47;;;;;;;-0.15;100.00;96888.03;5011513;28;20499;-76
2021/11/10 05:10:09;;;;;;;24.07;13.77;;;;;;;-0.24;100.00;96900.50;5035266;28;20527;-76
2021/11/10 05:12:36;;;;;;;21.27;14.10;;;;;;;-0.21;100.00;96896.09;5019616;28;20824;-76
2021/11/10 05:15:02;;;;;;;21.93;12.97;;;;;;;-0.25;100.00;96885.91;5012763;28;20448;-76
2021/11/10 05:17:29;;;;;;;25.03;15.57;;;;;;;-0.21;100.00;96893.53;5008676;28;20456;-74
2021/11/10 05:19:55;;;;;;;21.30;14.10;;;;;;;-0.28;100.00;96888.66;5004616;28;20896;-75
2021/11/10 05:22:20;;;;;;;22.47;14.23;;;;;;;-0.29;100.00;96889.56;5015626;28;20040;-76
2021/11/10 05:24:46;;;;;;;18.67;12.47;;;;;;;-0.30;100.00;96887.91;4998843;28;20028;-73
2021/11/10 05:27:12;;;;;;;22.70;13.30;;;;;;;-0.32;100.00;96886.31;5033773;28;20163;-73
2021/11/10 05:29:38;;;;;;;19.80;12.70;;;;;;;-0.28;100.00;96886.06;5035625;28;20021;-73
2021/11/10 05:32:04;;;;;;;17.43;10.90;;;;;;;-0.25;100.00;96892.84;5012297;28;20075;-72
2021/11/10 05:34:30;;;;;;;22.73;11.97;;;;;;;-0.24;100.00;96895.34;5006981;28;20509;-72
2021/11/10 05:36:56;;;;;;;20.93;11.73;;;;;;;-0.36;100.00;96895.97;4996146;28;20530;-74
2021/11/10 05:39:22;;;;;;;20.53;12.50;;;;;;;-0.35;100.00;96895.03;5017640;28;20472;-75
2021/11/10 05:41:48;;;;;;;19.77;13.93;;;;;;;-0.40;100.00;96898.75;5019610;28;20037;-74
2021/11/10 05:44:15;;;;;;;18.60;12.77;;;;;;;-0.36;100.00;96893.38;5039789;28;20052;-76
2021/11/10 05:46:41;;;;;;;19.97;12.90;;;;;;;-0.43;100.00;96899.75;5013885;28;21091;-77
2021/11/10 05:49:07;;;;;;;22.80;14.63;;;;;;;-0.43;100.00;96898.94;4997691;28;20809;-77
2021/11/10 05:51:33;;;;;;;25.77;14.10;;;;;;;-0.48;100.00;96899.13;5015769;28;20977;-77
2021/11/10 05:53:59;;;;;;;21.80;14.67;;;;;;;-0.50;100.00;96894.06;5026146;28;20527;-77
2021/11/10 05:56:27;;;;;;;26.40;17.20;;;;;;;-0.44;100.00;96897.25;5018696;28;20033;-77
2021/11/10 05:58:57;;;;;;;27.37;17.50;;;;;;;-0.42;100.00;96906.59;5031876;28;20033;-77
2021/11/10 06:01:27;;;;;;;40.17;24.87;;;;;;;-0.44;100.00;96903.25;5000925;28;20910;-78
2021/11/10 06:03:54;;;;;;;42.23;25.97;;;;;;;-0.44;100.00;96900.66;5009731;28;20452;-77
2021/11/10 06:06:25;;;;;;;31.53;20.80;;;;;;;-0.42;100.00;96898.84;5017367;28;20526;-77
2021/11/10 06:08:51;;;;;;;26.37;16.73;;;;;;;-0.43;100.00;96909.28;5011197;28;20510;-77
2021/11/10 06:11:16;;;;;;;25.67;16.70;;;;;;;-0.48;100.00;96910.31;5022854;28;20455;-76
2021/11/10 06:13:42;;;;;;;26.60;14.90;;;;;;;-0.44;100.00;96915.31;5018226;28;20033;-77
2021/11/10 06:16:09;;;;;;;22.97;15.17;;;;;;;-0.48;100.00;96918.06;5036762;28;20037;-77
2021/11/10 06:18:35;;;;;;;29.37;16.17;;;;;;;-0.56;100.00;96917.59;5028402;28;20021;-75
2021/11/10 06:21:02;;;;;;;21.63;14.57;;;;;;;-0.55;100.00;96921.03;5026511;28;20517;-75
2021/11/10 06:23:28;;;;;;;32.37;19.67;;;;;;;-0.57;100.00;96915.09;4995958;28;20471;-75
2021/11/10 06:25:55;;;;;;;32.70;18.83;;;;;;;-0.61;100.00;96919.56;5018991;28;20456;-75
2021/11/10 06:28:21;;;;;;;29.90;17.53;;;;;;;-0.60;100.00;96923.00;5026057;28;20068;-75
2021/11/10 06:30:47;;;;;;;22.87;16.00;;;;;;;-0.59;100.00;96927.25;5035198;28;20588;-75
2021/11/10 06:33:12;;;;;;;27.70;18.20;;;;;;;-0.65;100.00;96930.13;5010515;28;20030;-75
2021/11/10 06:35:38;;;;;;;29.17;18.30;;;;;;;-0.54;100.00;96928.72;5034075;28;20033;-75
2021/11/10 06:38:04;;;;;;;30.23;17.13;;;;;;;-0.53;100.00;96925.22;5014201;28;20033;-74
2021/11/10 06:40:30;;;;;;;28.50;18.07;;;;;;;-0.49;100.00;96925.91;5022499;28;20032;-75
2021/11/10 06:42:56;;;;;;;32.37;19.10;;;;;;;-0.38;100.00;96926.19;5029796;28;20029;-75
2021/11/10 06:45:22;;;;;;;33.70;20.00;;;;;;;-0.33;100.00;96924.25;5026007;28;20470;-75
2021/11/10 06:47:49;;;;;;;35.27;22.10;;;;;;;-0.28;100.00;96926.59;5021530;28;20629;-75
2021/11/10 06:50:15;;;;;;;39.30;25.33;;;;;;;-0.27;100.00;96930.84;5033574;28;20459;-75
2021/11/10 06:52:40;;;;;;;33.73;20.83;;;;;;;-0.26;100.00;96932.53;5033592;28;20467;-76
2021/11/10 06:55:08;;;;;;;35.30;22.93;;;;;;;-0.28;100.00;96924.84;5005255;28;20531;-76
2021/11/10 06:57:34;;;;;;;38.80;23.33;;;;;;;-0.26;100.00;96928.19;5008551;28;20041;-76
2021/11/10 06:59:59;;;;;;;50.27;26.17;;;;;;;-0.20;100.00;96928.78;5023541;28;20454;-76
2021/11/10 07:02:25;;;;;;;41.37;24.77;;;;;;;-0.12;100.00;96929.25;5031804;28;20043;-77
2021/11/10 07:04:51;;;;;;;34.50;21.83;;;;;;;-0.07;100.00;96938.47;5038690;28;20158;-76
2021/11/10 07:07:19;;;;;;;39.60;24.87;;;;;;;0.05;100.00;96942.16;5026136;28;20041;-76
2021/11/10 07:09:45;;;;;;;39.77;24.47;;;;;;;0.17;100.00;96931.22;5016796;28;20168;-76
2021/11/10 07:12:11;;;;;;;43.33;26.07;;;;;;;0.36;100.00;96935.44;5021726;28;20483;-76
2021/11/10 07:14:37;;;;;;;38.43;25.13;;;;;;;0.52;100.00;96938.06;5030310;28;20533;-76
2021/11/10 07:17:02;;;;;;;36.57;22.87;;;;;;;0.64;100.00;96946.03;5019351;28;20569;-76
2021/11/10 07:19:28;;;;;;;34.53;22.03;;;;;;;0.75;100.00;96942.03;5036020;28;20021;-76
2021/11/10 07:21:54;;;;;;;33.53;23.03;;;;;;;0.91;100.00;96938.53;5012514;28;20049;-76
2021/11/10 07:24:20;;;;;;;38.43;22.77;;;;;;;1.01;100.00;96936.28;4999588;28;20033;-76
2021/11/10 07:26:45;;;;;;;33.17;21.60;;;;;;;1.26;100.00;96935.78;5030085;28;20122;-76
2021/11/10 07:29:11;;;;;;;32.80;20.70;;;;;;;1.49;100.00;96929.31;5023564;28;20070;-76
2021/11/10 07:31:37;;;;;;;31.27;20.53;;;;;;;1.69;100.00;96915.22;5018900;28;20037;-76
2021/11/10 07:34:03;;;;;;;33.20;21.23;;;;;;;2.07;100.00;96920.75;5015052;28;20121;-76
2021/11/10 07:36:30;;;;;;;31.00;19.63;;;;;;;2.63;100.00;96920.06;5017093;28;20493;-77
2021/11/10 07:38:57;;;;;;;28.73;18.87;;;;;;;3.02;100.00;96904.63;5002612;28;20460;-76
2021/11/10 07:41:28;;;;;;;27.97;17.77;;;;;;;3.50;100.00;96899.81;5019419;28;20530;-76
2021/11/10 07:43:54;;;;;;;25.60;16.57;;;;;;;3.61;100.00;96904.31;5026300;28;20524;-76
2021/11/10 07:46:23;;;;;;;22.47;15.17;;;;;;;3.74;100.00;96899.16;5014447;28;20632;-76
2021/11/10 07:48:49;;;;;;;21.57;13.50;;;;;;;4.15;100.00;96892.97;5029480;28;20080;-76
2021/11/10 07:51:20;;;;;;;22.63;14.77;;;;;;;4.20;100.00;96902.13;5032950;28;20447;-76
2021/11/10 07:53:47;;;;;;;22.60;14.90;;;;;;;5.07;98.94;96902.25;5017838;28;20498;-76
2021/11/10 07:56:12;;;;;;;22.53;15.73;;;;;;;5.31;96.02;96895.28;5034560;28;20057;-76
2021/11/10 07:58:39;;;;;;;23.03;15.73;;;;;;;4.83;98.29;96905.66;5003105;28;20048;-75
2021/11/10 08:01:10;;;;;;;23.93;15.27;;;;;;;4.68;100.00;96896.28;5032914;28;20060;-76
2021/11/10 08:03:36;;;;;;;24.43;16.80;;;;;;;4.64;100.00;96903.47;5042425;28;20051;-76
2021/11/10 08:06:03;;;;;;;25.37;14.97;;;;;;;4.99;99.11;96904.56;5000879;28;20029;-76
2021/11/10 08:08:29;;;;;;;21.33;15.63;;;;;;;5.58;96.44;96899.44;5001145;28;20057;-75
2021/11/10 08:10:58;;;;;;;22.17;15.87;;;;;;;5.68;94.24;96900.44;5025341;28;20025;-76
2021/11/10 08:13:26;;;;;;;20.77;14.97;;;;;;;5.87;96.50;96899.91;5025739;28;20037;-76
2021/11/10 08:15:54;;;;;;;27.60;15.40;;;;;;;5.49;96.19;96903.53;5040593;28;20026;-76
2021/11/10 08:18:21;;;;;;;21.53;14.13;;;;;;;6.20;92.40;96901.78;5024096;28;20490;-76
2021/11/10 08:20:47;;;;;;;20.83;15.77;;;;;;;5.87;94.71;96908.56;5029923;28;20087;-76
2021/11/10 08:23:18;;;;;;;21.23;15.63;;;;;;;6.77;89.45;96892.22;5010205;28;20041;-76
2021/11/10 08:25:44;;;;;;;21.53;15.70;;;;;;;6.02;93.28;96897.97;5016620;28;20045;-75
2021/11/10 08:28:10;;;;;;;21.30;14.30;;;;;;;7.32;100.00;96899.16;5017664;28;20050;-74
2021/11/10 08:30:36;;;;;;;22.07;14.23;;;;;;;7.01;91.81;96894.72;5032883;28;20498;-74
2021/11/10 08:33:02;;;;;;;20.27;13.63;;;;;;;7.26;85.10;96899.66;5000926;28;20041;-75
2021/11/10 08:35:28;;;;;;;17.33;12.50;;;;;;;7.64;83.98;96895.72;5009226;28;20029;-74
2021/11/10 08:37:55;;;;;;;17.97;12.70;;;;;;;8.07;82.67;96892.22;5027693;28;20036;-74
2021/11/10 08:40:21;;;;;;;16.67;12.00;;;;;;;8.46;78.89;96892.50;5006968;28;20453;-75
2021/11/10 08:42:47;;;;;;;15.47;12.53;;;;;;;8.74;78.47;96883.09;5008014;28;20065;-75
2021/11/10 08:45:17;;;;;;;17.97;11.87;;;;;;;8.94;75.70;96886.63;5011198;28;20034;-75
2021/11/10 08:47:45;;;;;;;18.90;12.63;;;;;;;7.96;76.07;96890.47;4993312;28;20041;-75
2021/11/10 08:50:15;;;;;;;21.63;13.83;;;;;;;7.03;83.49;96892.81;5020318;28;20025;-76
2021/11/10 08:52:42;;;;;;;21.37;13.63;;;;;;;6.98;85.35;96903.63;5042210;28;20034;-76
2021/11/10 08:55:09;;;;;;;16.77;12.77;;;;;;;6.31;87.84;96909.66;5023733;28;20045;-74
2021/11/10 08:57:36;;;;;;;18.10;12.83;;;;;;;6.27;88.87;96918.69;5015795;28;20055;-74
2021/11/10 09:00:09;;;;;;;20.00;13.20;;;;;;;6.63;85.63;96919.44;5017501;28;20129;-75
2021/11/10 09:02:35;;;;;;;21.90;14.40;;;;;;;6.72;88.17;96907.44;5009779;28;20029;-74
2021/11/10 09:05:05;;;;;;;18.27;12.80;;;;;;;6.66;87.33;96903.50;5025599;28;20044;-75
2021/11/10 09:07:31;;;;;;;22.50;14.03;;;;;;;6.06;92.07;96922.88;5014413;28;20036;-74
2021/11/10 09:09:57;;;;;;;17.30;12.47;;;;;;;6.85;89.77;96914.22;5015222;28;20025;-74
2021/11/10 09:12:23;;;;;;;26.63;14.90;;;;;;;5.96;92.14;96927.97;5011703;28;20045;-74
2021/11/10 09:14:49;;;;;;;23.27;15.30;;;;;;;5.81;95.23;96924.69;5014223;28;20021;-74
2021/11/10 09:17:16;;;;;;;18.87;14.73;;;;;;;6.08;94.27;96913.19;5033067;28;20115;-74
2021/11/10 09:19:41;;;;;;;19.50;14.37;;;;;;;6.81;90.42;96907.56;5001519;28;20402;-74
2021/11/10 09:22:07;;;;;;;21.40;14.03;;;;;;;7.25;88.63;96900.63;5012581;28;20034;-74
2021/11/10 09:24:35;;;;;;;24.27;15.50;;;;;;;7.38;88.71;96900.47;5032716;28;20033;-74
2021/11/10 09:27:01;;;;;;;21.53;14.43;;;;;;;7.71;86.75;96904.78;5009545;28;20025;-74
2021/11/10 09:29:28;;;;;;;23.70;15.87;;;;;;;7.87;85.63;96900.88;5042091;28;20055;-73
2021/11/10 09:31:53;;;;;;;21.00;14.73;;;;;;;8.27;82.95;96899.22;5005172;28;20025;-74
2021/11/10 09:34:20;;;;;;;22.37;14.20;;;;;;;8.25;83.54;96908.19;5015737;28;20063;-75
2021/11/10 09:36:49;;;;;;;23.50;15.23;;;;;;;7.56;85.04;96917.31;5008068;28;20671;-75
2021/11/10 09:39:17;;;;;;;22.60;15.43;;;;;;;6.92;88.22;96932.03;5016681;28;20490;-74
2021/11/10 09:41:45;;;;;;;26.43;17.73;;;;;;;6.64;91.23;96942.03;5014342;28;20033;-75
2021/11/10 09:44:11;;;;;;;34.20;20.87;;;;;;;6.77;90.49;96920.97;5035341;28;20095;-75
2021/11/10 09:46:38;;;;;;;31.43;18.33;;;;;;;6.54;92.41;96925.38;5014258;28;20033;-74
2021/11/10 09:49:05;;;;;;;32.27;17.30;;;;;;;6.90;90.02;96910.41;5033890;28;20045;-75
2021/11/10 09:51:31;;;;;;;24.40;16.87;;;;;;;6.76;91.18;96911.47;5018179;28;20114;-75
2021/11/10 09:53:58;;;;;;;24.10;18.03;;;;;;;6.84;92.61;96916.94;4999950;28;20090;-75
2021/11/10 09:56:24;;;;;;;27.23;18.43;;;;;;;6.78;94.08;96925.28;5018572;28;20456;-75
2021/11/10 09:58:51;;;;;;;31.00;19.23;;;;;;;6.59;96.64;96928.47;5030918;28;20512;-75
2021/11/10 10:01:17;;;;;;;27.77;18.73;;;;;;;6.89;95.14;96927.88;5020568;28;20021;-75
2021/11/10 10:03:46;;;;;;;29.60;18.17;;;;;;;6.94;95.37;96924.88;5016465;28;20205;-74
2021/11/10 10:06:15;;;;;;;23.67;17.47;;;;;;;6.70;95.60;96925.84;5036930;28;20044;-75
2021/11/10 10:08:43;;;;;;;26.63;18.37;;;;;;;6.89;94.67;96917.41;5047835;28;20065;-74
2021/11/10 10:11:10;;;;;;;25.77;16.57;;;;;;;6.92;94.37;96919.78;5033890;28;20033;-75
2021/11/10 10:13:37;;;;;;;28.07;18.10;;;;;;;6.26;97.60;96924.84;5019280;28;20036;-75
2021/11/10 10:16:03;;;;;;;27.27;18.70;;;;;;;6.25;97.56;96912.72;5015701;28;20033;-74
2021/11/10 10:18:29;;;;;;;25.47;17.40;;;;;;;6.29;96.28;96913.34;5011393;28;20029;-74
2021/11/10 10:21:03;;;;;;;21.83;16.87;;;;;;;6.15;99.01;96903.94;5009450;28;20671;-74
2021/11/10 10:23:32;;;;;;;26.10;18.23;;;;;;;6.05;100.00;96895.13;5025753;28;20034;-75
2021/11/10 10:26:07;;;;;;;23.20;16.77;;;;;;;5.98;100.00;96905.19;4999744;28;20022;-75
2021/11/10 10:28:42;;;;;;;26.33;16.70;;;;;;;6.26;99.67;96897.88;4993052;28;20091;-75
2021/11/10 10:31:13;;;;;;;24.50;17.37;;;;;;;6.67;96.64;96893.88;5005870;28;20033;-75
2021/11/10 10:33:42;;;;;;;24.03;17.60;;;;;;;6.03;99.12;96894.41;5001161;28;20076;-75
2021/11/10 10:36:14;;;;;;;21.87;16.00;;;;;;;6.32;100.00;96894.81;5029545;28;20040;-75
2021/11/10 10:38:52;;;;;;;26.25;17.13;;;;;;;6.19;100.00;96876.63;5017385;28;20041;-74
2021/11/10 10:41:27;;;;;;;25.43;16.07;;;;;;;6.10;100.00;96879.94;5029632;28;20553;-75
2021/11/10 10:43:55;;;;;;;26.40;17.63;;;;;;;6.48;100.00;96876.19;5037689;28;20033;-74
2021/11/10 10:46:29;;;;;;;25.13;16.47;;;;;;;6.73;98.08;96868.09;5025333;28;20037;-75
2021/11/10 10:49:17;;;;;;;26.00;16.63;;;;;;;6.90;97.38;96871.19;4996308;28;20582;-75
2021/11/10 10:51:51;;;;;;;23.57;15.37;;;;;;;6.70;99.16;96865.72;5000682;28;20026;-75
2021/11/10 10:54:18;;;;;;;23.57;15.97;;;;;;;6.73;98.39;96875.94;5020518;28;20513;-76
2021/11/10 10:56:54;;;;;;;23.77;16.80;;;;;;;7.10;98.36;96873.03;5007601;28;20478;-76
2021/11/10 10:59:23;;;;;;;23.70;16.83;;;;;;;6.69;98.71;96887.59;5011748;28;20025;-75
2021/11/10 11:02:03;;;;;;;23.33;16.13;;;;;;;6.91;99.92;96891.13;4997667;28;20061;-75
2021/11/10 11:04:31;;;;;;;26.63;16.27;;;;;;;6.91;100.00;96891.13;5002894;28;20193;-75
2021/11/10 11:07:04;;;;;;;21.40;16.00;;;;;;;7.08;99.13;96886.25;5010425;28;20037;-75
2021/11/10 11:09:49;;;;;;;26.48;18.27;;;;;;;6.89;99.73;96890.44;5039250;28;20040;-75
2021/11/10 11:12:16;;;;;;;28.07;19.57;;;;;;;6.94;99.81;96886.53;5018879;28;20041;-76
2021/11/10 11:15:05;;;;;;;26.50;16.43;;;;;;;6.92;97.68;96877.13;5022396;28;20795;-76
2021/11/10 11:17:36;;;;;;;23.47;17.00;;;;;;;6.67;98.82;96881.66;5018651;28;20105;-75
2021/11/10 11:20:12;;;;;;;24.83;16.73;;;;;;;6.76;98.84;96883.56;5026047;28;20048;-75
2021/11/10 11:22:41;;;;;;;20.90;15.33;;;;;;;7.17;97.65;96882.06;5007209;28;20510;-75